Viewtown, Virginia
Current Conditions -  °F | °C
As of 6:15 PM on Wednesday 26 Nov 2014 (Local Time) from KCJR Reporting Station
Overcast Overcast  
Wind Chill: 36°   Ceiling: 9000
Heat Index: 36°   Visibility: 10mi
Dew Point: 36°   Wind: 3mph
Humidity: 100%   Direction: 340°NNW
Pressure: 29.97"   Gusts: NA
Location:  38.67°N, 78.03°W
Report Text: KCJR 262315Z AUTO 34003KT 10SM OVC090 02/02 A2997 RMK AO2
Loading
Personal Weather Stations






























Interactive Weather Map New forecast layout! Learn more

10-Day Weather Forecast

Advertisements
Track Severe Weather on mobile